FW1054 Weather Reports


Display with metric or nautical units.
time (UTC)temp
F
wind
direction
speed
MPH
gust
MPH
rain 1hr
in
rain 24hr
in
rain mn
in
humidity
%
barometer
mb
20260506114539 50 49 3.0 5.0 0.00 0.00 0.00 92 1018.3
20260506113029 50 50 2.0 4.0 0.00 0.00 0.00 92 1018.4
20260506111527 50 50 3.0 4.0 0.00 0.00 0.00 92 1018.4
20260506110029 50 50 1.0 3.0 0.00 0.00 0.00 91 1018.3
20260506104524 51 50 2.0 3.0 0.00 0.00 0.00 91 1018.2
20260506103022 51 50 1.0 5.0 0.00 0.00 0.00 92 1018.2
20260506101539 51 50 2.0 5.0 0.00 0.00 0.00 92 1018.3
20260506100020 51 52 3.0 5.0 0.00 0.00 0.00 92 1018.3
20260506094519 51 54 4.0 6.0 0.00 0.00 0.00 92 1018.3
20260506093016 51 58 3.0 5.0 0.00 0.00 0.00 91 1018.3
20260506091520 51 57 3.0 5.0 0.00 0.00 0.00 91 1018.4
20260506090015 51 65 4.0 6.0 0.00 0.00 0.00 91 1018.4
20260506084517 51 67 2.0 4.0 0.00 0.00 0.00 90 1018.5
20260506083010 51 67 1.0 3.0 0.00 0.00 0.00 90 1018.5
20260506081509 52 67 1.0 4.0 0.00 0.00 0.00 90 1018.5
20260506073004 52 69 3.0 5.0 0.00 0.00 0.00 90 1018.4
20260506071502 52 64 2.0 4.0 0.00 0.00 0.00 90 1018.3
20260506070103 52 57 4.0 5.0 0.00 0.00 0.00 90 1018.1
20260506061557 53 15 2.0 5.0 0.00 0.00 0.00 89 1017.9
20260506044555 55 9 1.0 3.0 0.00 0.00 0.00 88 1017.1
20260506043048 55 9 3.0 0.0 0.00 0.00 0.00 89 1016.9
20260506041557 55 5 2.0 9.0 0.00 0.00 0.00 88 1016.6
20260506040045 55 321 3.0 9.0 0.00 0.00 0.00 88 1016.4
20260506034547 56 290 4.0 11.0 0.00 0.00 0.00 87 1016.4
20260506033045 56 302 4.0 10.0 0.00 0.00 0.00 86 1016.2
20260506031547 56 305 3.0 10.0 0.00 0.00 0.00 85 1016.1
20260506030044 57 313 3.0 11.0 0.00 0.00 0.00 84 1016.0
20260506024543 58 325 6.0 11.0 0.00 0.00 0.00 82 1016.0
20260506023044 59 302 4.0 12.0 0.00 0.00 0.00 81 1015.7
20260506021544 60 292 5.0 13.0 0.00 0.00 0.00 80 1015.8
20260506020041 60 281 8.0 15.0 0.00 0.00 0.00 79 1015.7
20260506014549 60 313 5.0 14.0 0.00 0.00 0.00 79 1015.7
20260506013041 61 259 8.0 14.0 0.00 0.00 0.00 78 1015.9
20260506011542 62 336 8.0 15.0 0.00 0.00 0.00 76 1015.8
20260506010038 62 268 8.0 17.0 0.00 0.00 0.00 76 1015.9
20260506004542 61 269 5.0 13.0 0.00 0.00 0.00 78 1015.7
20260506003037 61 273 7.0 14.0 0.00 0.00 0.00 77 1015.8
20260506001549 61 254 7.0 14.0 0.00 0.00 0.00 76 1016.1
20260506000043 63 254 7.0 16.0 0.00 0.00 0.00 74 1015.8
20260505234545 62 269 9.0 15.0 0.00 0.00 0.00 75 1015.9
20260505233034 62 305 7.0 14.0 0.00 0.00 0.00 74 1015.9
20260505231532 63 271 9.0 15.0 0.00 0.00 0.00 74 1016.0
20260505230033 62 320 7.0 13.0 0.00 0.00 0.00 77 1015.8
20260505224535 61 271 6.0 14.0 0.00 0.00 0.00 78 1015.9
20260505223038 63 267 6.0 12.0 0.00 0.00 0.00 76 1016.3
20260505221525 63 251 8.0 14.0 0.00 0.00 0.00 75 1016.4
20260505220034 62 272 5.0 13.0 0.00 0.00 0.00 77 1016.3
20260505214537 62 224 5.0 13.0 0.00 0.00 0.00 77 1016.5
20260505213033 62 263 7.0 15.0 0.00 0.00 0.00 75 1016.6
20260505211518 62 252 8.0 13.0 0.00 0.00 0.00 76 1016.6
20260505210016 61 286 8.0 16.0 0.00 0.00 0.00 76 1016.6
20260505204524 61 325 7.0 17.0 0.00 0.00 0.00 77 1016.6
20260505203012 61 293 7.0 13.0 0.00 0.00 0.00 76 1016.7
20260505201510 61 270 4.0 13.0 0.00 0.00 0.00 76 1016.6
20260505200009 60 275 8.0 13.0 0.00 0.00 0.00 75 1016.6
20260505194508 61 263 6.0 15.0 0.00 0.00 0.00 74 1016.5
20260505193010 61 272 7.0 13.0 0.00 0.00 0.00 73 1016.5
20260505191502 60 285 8.0 15.0 0.00 0.00 0.00 73 1016.6
20260505190115 59 267 5.0 11.0 0.00 0.00 0.00 77 1016.3
20260505184608 60 300 7.0 12.0 0.00 0.00 0.00 75 1016.4
20260505183056 60 250 6.0 11.0 0.00 0.00 0.00 76 1016.2
20260505181552 59 259 6.0 10.0 0.00 0.00 0.00 78 1016.1
20260505180050 58 213 5.0 7.0 0.00 0.00 0.00 78 1016.3
20260505174546 58 205 4.0 6.0 0.00 0.00 0.00 79 1016.0
20260505173046 58 199 3.0 6.0 0.00 0.00 0.00 78 1016.0
20260505171544 58 215 2.0 5.0 0.00 0.00 0.00 77 1016.1
20260505170040 58 204 3.0 6.0 0.00 0.00 0.00 77 1016.1
20260505164540 57 200 2.0 5.0 0.00 0.00 0.00 79 1015.9
20260505163038 57 209 3.0 6.0 0.00 0.00 0.00 76 1015.9
20260505161536 57 209 3.0 5.0 0.00 0.00 0.00 78 1015.8
20260505153031 55 197 3.0 5.0 0.00 0.00 0.00 83 1015.4
20260505151526 54 26 1.0 4.0 0.00 0.00 0.00 85 1015.3
20260505124517 51 15 3.0 4.0 0.00 0.00 0.00 88 1014.6
20260505123019 51 15 2.0 4.0 0.00 0.00 0.00 87 1014.6
20260505121513 51 14 2.0 3.0 0.00 0.00 0.00 87 1014.6
20260505120010 51 13 1.0 4.0 0.00 0.00 0.00 86 1014.6